Time;durP1;ratioP1;P1;durP2;ratioP2;P2;SDS_P1;SDS_P2;PMS_P1;PMS_P2;Temp;Humidity;BMP_temperature;BMP_pressure;BME280_temperature;BME280_humidity;BME280_pressure;Samples;Min_cycle;Max_cycle;Signal;HPM_P1;HPM_P2
2022/04/17 00:00:10;;;;;;;11.35;6.45;;;;;;;7.56;44.81;102956.78;5032932;28;20530;-79
2022/04/17 00:02:36;;;;;;;9.57;6.30;;;;;;;7.48;44.55;102946.03;5013139;28;20121;-80
2022/04/17 00:05:03;;;;;;;12.45;7.18;;;;;;;7.43;44.51;102947.66;5013163;28;20044;-80
2022/04/17 00:07:29;;;;;;;12.85;7.43;;;;;;;7.36;44.91;102940.47;5047334;28;20091;-80
2022/04/17 00:09:55;;;;;;;11.05;6.47;;;;;;;7.32;44.65;102944.78;5050319;28;20037;-80
2022/04/17 00:12:23;;;;;;;10.18;6.38;;;;;;;7.26;44.90;102942.84;5017189;28;20046;-80
2022/04/17 00:14:49;;;;;;;12.85;6.50;;;;;;;7.21;45.36;102946.22;5033567;28;20025;-80
2022/04/17 00:17:15;;;;;;;11.60;7.18;;;;;;;7.19;45.03;102948.81;5033502;28;20037;-80
2022/04/17 00:19:40;;;;;;;9.10;6.43;;;;;;;7.15;45.16;102943.47;5050188;28;20446;-79
2022/04/17 00:22:05;;;;;;;11.60;7.00;;;;;;;7.10;44.76;102940.69;5033476;28;20041;-80
2022/04/17 00:24:31;;;;;;;12.38;7.18;;;;;;;7.04;45.54;102948.41;5038020;28;20021;-80
2022/04/17 00:26:59;;;;;;;10.13;5.65;;;;;;;6.99;45.66;102945.66;5054545;28;20346;-79
2022/04/17 00:29:25;;;;;;;12.80;6.78;;;;;;;6.96;45.67;102948.22;5037015;28;20059;-80
2022/04/17 00:31:51;;;;;;;11.02;6.25;;;;;;;6.89;45.45;102949.78;5054646;28;20029;-80
2022/04/17 00:34:16;;;;;;;13.38;7.15;;;;;;;6.84;46.38;102946.13;5036463;28;20496;-80
2022/04/17 00:36:42;;;;;;;12.90;6.93;;;;;;;6.75;45.28;102940.66;5053070;28;20400;-80
2022/04/17 00:39:07;;;;;;;16.25;7.38;;;;;;;6.70;46.18;102943.97;5053557;28;20044;-80
2022/04/17 00:41:33;;;;;;;11.80;6.57;;;;;;;6.67;46.84;102944.78;5036419;28;20384;-80
2022/04/17 00:43:58;;;;;;;11.82;6.45;;;;;;;6.64;46.19;102945.59;5051230;28;20112;-80
2022/04/17 00:46:24;;;;;;;17.45;7.07;;;;;;;6.61;46.57;102950.78;5025411;28;20045;-80
2022/04/17 00:48:49;;;;;;;10.98;6.47;;;;;;;6.57;46.93;102941.00;5054089;28;20044;-80
2022/04/17 00:51:16;;;;;;;12.23;6.80;;;;;;;6.52;46.95;102944.34;5038438;28;20057;-80
2022/04/17 00:53:45;;;;;;;11.98;6.63;;;;;;;6.49;46.66;102942.53;5033684;28;20065;-77
2022/04/17 00:56:11;;;;;;;11.27;7.18;;;;;;;6.42;46.87;102944.09;5034201;28;20053;-77
2022/04/17 00:58:38;;;;;;;12.15;6.63;;;;;;;6.38;46.89;102936.06;5015556;28;20453;-77
2022/04/17 01:01:04;;;;;;;17.15;7.40;;;;;;;6.36;47.65;102937.78;5015951;28;20442;-77
2022/04/17 01:03:30;;;;;;;15.98;7.07;;;;;;;6.33;47.11;102938.59;5032075;28;20037;-77
2022/04/17 01:05:57;;;;;;;10.02;6.18;;;;;;;6.32;47.12;102934.13;5035455;28;20606;-77
2022/04/17 01:08:23;;;;;;;13.00;6.55;;;;;;;6.28;47.14;102929.66;5052954;28;20215;-77
2022/04/17 01:10:49;;;;;;;11.75;6.88;;;;;;;6.25;47.26;102926.91;5053377;28;20478;-77
2022/04/17 01:13:14;;;;;;;13.05;7.03;;;;;;;6.22;46.97;102934.72;5052978;28;20029;-77
2022/04/17 01:15:40;;;;;;;17.25;6.55;;;;;;;6.20;47.35;102937.28;5052298;28;20091;-77
2022/04/17 01:18:05;;;;;;;11.23;6.28;;;;;;;6.16;47.34;102940.69;5051948;28;20082;-77
2022/04/17 01:20:32;;;;;;;15.60;7.00;;;;;;;6.14;47.57;102936.25;5051509;28;20112;-77
2022/04/17 01:28:27;;;;;;;12.32;6.40;;;;;;;6.08;47.61;102934.31;5033425;28;20120;-77
2022/04/17 01:30:53;;;;;;;8.30;5.50;;;;;;;6.07;47.60;102943.06;5048997;28;20128;-77
2022/04/17 01:33:19;;;;;;;9.57;5.78;;;;;;;6.07;47.40;102943.06;5033166;28;20037;-77
2022/04/17 01:35:44;;;;;;;12.23;6.40;;;;;;;6.02;46.96;102934.13;5032472;28;20048;-77
2022/04/17 01:38:10;;;;;;;12.77;6.30;;;;;;;5.98;47.66;102938.41;5033789;28;20069;-77
2022/04/17 01:40:35;;;;;;;10.82;5.68;;;;;;;5.95;46.93;102935.66;5033565;28;20120;-77
2022/04/17 01:43:01;;;;;;;13.38;6.55;;;;;;;5.90;47.60;102936.34;5032492;28;20069;-77
2022/04/17 01:45:26;;;;;;;12.10;5.90;;;;;;;5.86;48.07;102937.09;5037903;28;20040;-77
2022/04/17 01:47:51;;;;;;;9.18;5.55;;;;;;;5.85;47.51;102933.56;5051637;28;20453;-77
2022/04/17 01:50:17;;;;;;;10.05;5.97;;;;;;;5.82;47.66;102936.13;5043677;28;20061;-77
2022/04/17 01:52:43;;;;;;;10.20;5.65;;;;;;;5.77;47.43;102935.97;5031723;28;20402;-77
2022/04/17 01:55:09;;;;;;;8.95;5.60;;;;;;;5.73;47.71;102927.94;5031888;28;20436;-77
2022/04/17 01:57:34;;;;;;;9.73;5.78;;;;;;;5.70;48.02;102933.97;5031828;28;20050;-77
2022/04/17 02:00:00;;;;;;;11.35;6.03;;;;;;;5.67;48.03;102925.13;5031108;28;20087;-77
2022/04/17 02:02:25;;;;;;;13.50;5.57;;;;;;;5.64;48.25;102925.91;5022590;28;20055;-77
2022/04/17 02:04:51;;;;;;;11.40;5.70;;;;;;;5.60;48.44;102929.28;5052631;28;20461;-77
2022/04/17 02:07:16;;;;;;;9.50;5.18;;;;;;;5.56;47.96;102922.13;5034757;28;20135;-77
2022/04/17 02:09:42;;;;;;;11.18;5.30;;;;;;;5.52;48.57;102926.41;5052732;28;20388;-77
2022/04/17 02:12:07;;;;;;;11.15;6.20;;;;;;;5.51;49.01;102924.59;5051143;28;20049;-77
2022/04/17 02:14:33;;;;;;;9.70;5.50;;;;;;;5.48;48.26;102918.38;5034383;28;20040;-77
2022/04/17 02:16:58;;;;;;;11.82;5.78;;;;;;;5.46;48.16;102926.19;5034726;28;20472;-77
2022/04/17 02:19:23;;;;;;;11.68;5.93;;;;;;;5.40;49.10;102928.63;5052524;28;20025;-77
2022/04/17 02:21:49;;;;;;;8.80;5.15;;;;;;;5.35;48.81;102920.59;5042267;28;20346;-77
2022/04/17 02:24:14;;;;;;;7.82;5.07;;;;;;;5.30;49.02;102916.94;5031027;28;20428;-77
2022/04/17 02:26:40;;;;;;;10.13;5.78;;;;;;;5.27;48.85;102916.84;5014694;28;20476;-77
2022/04/17 02:29:05;;;;;;;8.57;5.22;;;;;;;5.26;49.15;102924.66;5030885;28;20133;-77
2022/04/17 02:31:31;;;;;;;8.63;5.15;;;;;;;5.20;49.08;102916.59;5030596;28;20129;-77
2022/04/17 02:33:57;;;;;;;8.38;4.88;;;;;;;5.17;49.61;102925.25;5014376;28;20036;-77
2022/04/17 02:36:23;;;;;;;9.45;5.13;;;;;;;5.15;48.83;102925.19;5032029;28;20037;-77
2022/04/17 02:38:49;;;;;;;10.13;5.45;;;;;;;5.13;49.02;102921.59;5030909;28;20045;-77
2022/04/17 02:41:14;;;;;;;10.00;5.97;;;;;;;5.09;49.61;102922.34;5030815;28;20114;-77
2022/04/17 02:43:40;;;;;;;10.57;5.72;;;;;;;5.02;49.63;102925.63;5032037;28;20037;-77
2022/04/17 02:46:05;;;;;;;8.95;5.85;;;;;;;4.98;50.16;102920.22;5040209;28;20117;-77
2022/04/17 02:48:32;;;;;;;8.80;5.05;;;;;;;4.94;49.80;102916.56;5051808;28;20468;-77
2022/04/17 02:50:58;;;;;;;9.13;5.65;;;;;;;4.91;50.46;102916.47;5037679;28;20057;-77
2022/04/17 02:53:24;;;;;;;11.55;5.30;;;;;;;4.88;49.82;102913.75;5031827;28;20033;-77
2022/04/17 02:55:51;;;;;;;12.05;5.55;;;;;;;4.85;50.21;102922.41;5014336;28;20061;-77
2022/04/17 02:58:16;;;;;;;10.27;5.65;;;;;;;4.80;50.34;102912.56;5030544;28;20041;-77
2022/04/17 03:06:10;;;;;;;12.35;5.60;;;;;;;4.71;50.02;102903.53;5051752;28;20029;-77
2022/04/17 03:08:40;;;;;;;9.90;5.57;;;;;;;4.69;50.64;102901.69;5051564;28;20392;-77
2022/04/17 03:11:05;;;;;;;11.73;5.43;;;;;;;4.67;50.26;102906.00;5050541;28;20037;-77
2022/04/17 03:13:31;;;;;;;8.45;5.45;;;;;;;4.66;51.19;102904.22;5049822;28;20048;-77
2022/04/17 03:15:56;;;;;;;10.00;5.18;;;;;;;4.66;51.20;102899.84;5051688;28;20118;-77
2022/04/17 03:18:22;;;;;;;9.70;5.40;;;;;;;4.65;51.14;102900.72;5049948;28;20061;-77
2022/04/17 03:20:47;;;;;;;12.63;5.82;;;;;;;4.65;50.81;102899.78;5049819;28;20136;-77
2022/04/17 03:23:14;;;;;;;9.15;4.90;;;;;;;4.63;51.10;102898.88;5031505;28;20026;-77
2022/04/17 03:25:40;;;;;;;9.27;5.40;;;;;;;4.60;50.96;102902.28;5031503;28;20053;-77
2022/04/17 03:28:06;;;;;;;9.02;5.43;;;;;;;4.60;51.11;102889.16;5029822;28;20041;-77
2022/04/17 03:30:31;;;;;;;9.77;5.25;;;;;;;4.60;51.09;102889.16;5030861;28;20485;-77
2022/04/17 03:32:57;;;;;;;9.43;5.28;;;;;;;4.59;51.05;102889.97;5031488;28;20389;-77
2022/04/17 03:35:23;;;;;;;8.57;5.47;;;;;;;4.57;51.50;102891.66;5030164;28;20448;-77
2022/04/17 03:37:48;;;;;;;13.80;5.57;;;;;;;4.56;51.16;102894.22;5030188;28;20542;-77
2022/04/17 03:40:16;;;;;;;9.90;5.75;;;;;;;4.53;51.44;102889.78;5031308;28;20476;-77
2022/04/17 03:42:42;;;;;;;10.10;4.65;;;;;;;4.52;51.05;102890.59;5030524;28;20140;-77
2022/04/17 03:45:17;;;;;;;9.15;5.57;;;;;;;4.49;51.23;102891.38;5033593;28;20053;-77
2022/04/17 03:47:43;;;;;;;12.75;4.85;;;;;;;4.46;51.37;102888.66;5031272;28;20041;-77
2022/04/17 03:50:09;;;;;;;9.48;5.38;;;;;;;4.43;51.58;102891.16;5036904;28;20053;-77
2022/04/17 03:52:42;;;;;;;10.55;5.50;;;;;;;4.40;51.98;102887.53;5049822;28;20036;-77
2022/04/17 03:55:09;;;;;;;8.00;5.03;;;;;;;4.36;52.66;102877.78;5051112;28;20461;-76
2022/04/17 03:57:34;;;;;;;10.68;5.38;;;;;;;4.28;52.50;102878.38;5049804;28;20032;-77
2022/04/17 04:00:01;;;;;;;10.38;5.40;;;;;;;4.24;52.09;102881.72;5033071;28;20476;-77
2022/04/17 04:02:37;;;;;;;8.60;5.13;;;;;;;4.23;52.59;102884.31;5040282;28;20042;-77
2022/04/17 04:05:03;;;;;;;9.52;5.55;;;;;;;4.22;52.90;102879.88;5029842;28;20057;-77
2022/04/17 04:07:29;;;;;;;7.70;4.65;;;;;;;4.17;53.02;102882.31;5029514;28;20045;-77
2022/04/17 04:09:54;;;;;;;9.73;5.13;;;;;;;4.12;52.65;102877.75;5031330;28;20034;-77
2022/04/17 04:12:20;;;;;;;9.27;5.00;;;;;;;4.06;53.54;102875.81;5013190;28;20021;-77
2022/04/17 04:14:45;;;;;;;7.82;4.95;;;;;;;4.04;53.88;102870.50;5030616;28;20140;-77
2022/04/17 04:17:11;;;;;;;11.07;5.28;;;;;;;4.03;53.27;102868.72;5030927;28;20025;-77
2022/04/17 04:19:37;;;;;;;10.35;4.88;;;;;;;4.00;53.89;102868.59;5030712;28;20029;-77
2022/04/17 04:22:03;;;;;;;8.23;5.18;;;;;;;3.99;53.69;102866.81;5029680;28;20405;-77
2022/04/17 04:24:29;;;;;;;8.00;5.07;;;;;;;3.97;52.96;102868.47;5029336;28;20026;-77
2022/04/17 04:29:52;;;;;;;8.95;4.55;;;;;;;3.91;53.76;102859.47;5028885;28;20136;-77
2022/04/17 04:32:20;;;;;;;7.97;4.88;;;;;;;3.88;54.20;102861.19;5012566;28;20145;-77
2022/04/17 04:34:46;;;;;;;8.70;4.88;;;;;;;3.85;54.58;102853.16;5030681;28;20041;-77
2022/04/17 04:37:11;;;;;;;8.70;5.03;;;;;;;3.80;54.64;102856.47;5030537;28;20358;-77
2022/04/17 04:39:38;;;;;;;6.95;4.65;;;;;;;3.76;54.09;102855.47;5012951;28;20042;-77
2022/04/17 04:42:03;;;;;;;8.38;4.97;;;;;;;3.72;55.18;102858.78;5029394;28;20037;-77
2022/04/17 04:44:29;;;;;;;8.43;4.78;;;;;;;3.70;53.95;102860.44;5033167;28;20377;-77
2022/04/17 04:46:55;;;;;;;10.45;5.68;;;;;;;3.66;55.03;102861.19;5044601;28;20037;-77
2022/04/17 04:49:30;;;;;;;8.95;5.13;;;;;;;3.61;55.65;102853.16;5047963;28;20037;-77
2022/04/17 04:52:02;;;;;;;7.25;4.97;;;;;;;3.61;55.92;102849.59;5028893;28;20096;-77
2022/04/17 04:54:31;;;;;;;8.67;4.73;;;;;;;3.57;55.32;102851.22;5015036;28;20148;-77
2022/04/17 04:56:58;;;;;;;8.25;5.25;;;;;;;3.53;55.84;102846.69;5034418;28;20034;-77
2022/04/17 04:59:23;;;;;;;7.32;4.60;;;;;;;3.52;55.45;102847.53;5031998;28;20029;-76
2022/04/17 05:01:50;;;;;;;8.48;4.78;;;;;;;3.50;55.92;102845.69;5034748;28;20400;-77
2022/04/17 05:04:17;;;;;;;9.27;4.70;;;;;;;3.49;55.83;102850.03;5035383;28;20033;-77
2022/04/17 05:06:43;;;;;;;9.65;4.90;;;;;;;3.51;55.77;102857.94;5053854;28;20045;-77
2022/04/17 05:09:08;;;;;;;8.07;4.68;;;;;;;3.52;55.88;102858.00;5053738;28;20029;-77
2022/04/17 05:11:34;;;;;;;10.10;5.50;;;;;;;3.54;55.58;102858.09;5034857;28;20393;-77
2022/04/17 05:14:00;;;;;;;8.88;4.80;;;;;;;3.57;56.46;102858.19;5053098;28;20050;-77
2022/04/17 05:16:25;;;;;;;7.10;4.93;;;;;;;3.59;55.93;102848.69;5052151;28;20072;-76
2022/04/17 05:19:17;;;;;;;9.00;4.88;;;;;;;3.63;56.15;102854.06;5053666;28;20039;-79
2022/04/17 05:21:36;;;;;;;9.85;5.40;;;;;;;3.67;55.97;102857.72;5052264;28;20085;-79
2022/04/17 05:24:02;;;;;;;9.68;5.07;;;;;;;3.74;56.60;102861.47;5035537;28;20195;-79
2022/04/17 05:26:27;;;;;;;9.65;5.15;;;;;;;3.80;56.70;102867.81;5035494;28;20036;-78
2022/04/17 05:28:53;;;;;;;12.05;4.88;;;;;;;3.86;56.36;102869.81;5053190;28;20045;-79
2022/04/17 05:31:18;;;;;;;8.57;4.97;;;;;;;3.93;56.39;102865.69;5039962;28;20033;-79
2022/04/17 05:33:44;;;;;;;8.70;4.80;;;;;;;3.99;56.01;102852.81;5032993;28;20061;-79
2022/04/17 05:36:09;;;;;;;9.27;5.28;;;;;;;4.05;56.22;102851.28;5031907;28;20034;-79
2022/04/17 05:38:35;;;;;;;9.00;5.38;;;;;;;4.12;56.07;102849.81;5031510;28;20142;-79
2022/04/17 05:41:00;;;;;;;9.52;5.28;;;;;;;4.20;56.52;102855.31;5015457;28;20033;-79
2022/04/17 05:43:26;;;;;;;7.65;5.05;;;;;;;4.27;55.96;102845.09;5031285;28;20056;-79
2022/04/17 05:45:52;;;;;;;9.57;5.40;;;;;;;4.36;55.61;102854.16;5029414;28;20043;-78
2022/04/17 05:48:17;;;;;;;10.65;5.20;;;;;;;4.44;55.79;102853.59;5014439;28;20070;-78
2022/04/17 05:50:43;;;;;;;7.10;4.70;;;;;;;4.53;55.26;102859.16;5034717;28;20057;-78
2022/04/17 05:53:08;;;;;;;9.95;5.55;;;;;;;4.62;55.25;102861.22;5031009;28;20179;-78
2022/04/17 05:55:37;;;;;;;7.93;5.05;;;;;;;4.73;54.92;102864.22;5032862;28;20025;-78
2022/04/17 05:58:03;;;;;;;8.35;4.88;;;;;;;4.81;54.92;102862.75;5033271;28;20053;-76
2022/04/17 06:00:29;;;;;;;8.30;5.18;;;;;;;4.89;54.55;102844.63;5031769;28;20029;-76
2022/04/17 06:02:54;;;;;;;9.63;5.60;;;;;;;4.98;54.28;102855.44;5038473;28;20032;-76
2022/04/17 06:05:20;;;;;;;9.43;5.53;;;;;;;5.07;54.60;102846.97;5033683;28;20041;-76
2022/04/17 06:07:46;;;;;;;7.85;5.20;;;;;;;5.15;54.03;102848.13;5051296;28;20120;-76
2022/04/17 06:10:14;;;;;;;12.13;5.40;;;;;;;5.26;53.85;102848.47;5052833;28;20492;-76
2022/04/17 06:12:40;;;;;;;10.18;5.05;;;;;;;5.37;53.64;102849.72;5052425;28;20029;-76
2022/04/17 06:15:08;;;;;;;10.70;4.78;;;;;;;5.46;53.46;102852.63;5051263;28;20044;-76
2022/04/17 06:17:37;;;;;;;8.30;5.07;;;;;;;5.56;54.19;102846.81;5051072;28;20040;-76
2022/04/17 06:20:11;;;;;;;7.72;4.55;;;;;;;5.65;52.70;102847.94;5051163;28;20040;-76
2022/04/17 06:22:37;;;;;;;13.27;5.50;;;;;;;5.74;52.90;102849.13;5050798;28;20041;-76
2022/04/17 06:25:12;;;;;;;10.60;5.13;;;;;;;5.85;52.56;102846.81;5052337;28;20350;-78
2022/04/17 06:27:39;;;;;;;8.57;4.47;;;;;;;5.91;53.00;102843.44;5052380;28;20454;-77
2022/04/17 06:30:16;;;;;;;6.15;4.40;;;;;;;6.01;52.31;102838.56;5051390;28;20484;-76
2022/04/17 06:32:43;;;;;;;6.78;4.57;;;;;;;6.12;51.65;102841.50;5037441;28;20111;-76
2022/04/17 06:35:09;;;;;;;9.73;5.45;;;;;;;6.19;51.21;102846.06;5030789;28;20033;-76
2022/04/17 06:37:51;;;;;;;5.95;4.20;;;;;;;6.30;51.92;102843.72;5031910;28;20123;-76
2022/04/17 06:40:28;;;;;;;6.63;4.30;;;;;;;6.41;51.30;102842.31;5030634;28;20041;-76
2022/04/17 06:42:56;;;;;;;6.28;4.15;;;;;;;6.49;50.60;102841.63;5030654;28;20037;-76
2022/04/17 06:45:23;;;;;;;8.35;4.43;;;;;;;6.60;51.17;102845.41;5036637;28;20038;-76
2022/04/17 06:47:49;;;;;;;7.03;4.45;;;;;;;6.68;50.57;102842.16;5051660;28;20048;-76
2022/04/17 06:50:16;;;;;;;6.85;4.30;;;;;;;6.78;50.52;102843.28;5041323;28;20088;-76
2022/04/17 06:52:42;;;;;;;6.40;4.20;;;;;;;6.85;51.19;102836.44;5030398;28;20033;-76
2022/04/17 06:55:11;;;;;;;7.85;4.30;;;;;;;6.90;50.52;102832.19;5013985;28;20425;-76
2022/04/17 06:57:37;;;;;;;7.95;4.55;;;;;;;6.98;50.54;102821.84;5030061;28;20140;-76
2022/04/17 07:00:09;;;;;;;7.45;4.38;;;;;;;7.11;50.67;102839.72;5031197;28;20064;-76
2022/04/17 07:02:39;;;;;;;6.70;4.57;;;;;;;7.24;50.18;102836.50;5033334;28;20433;-77
2022/04/17 07:05:05;;;;;;;6.20;4.40;;;;;;;7.36;50.60;102837.66;5029875;28;20389;-77
2022/04/17 07:07:31;;;;;;;7.82;4.32;;;;;;;7.46;50.51;102834.38;5029553;28;20037;-76
2022/04/17 07:09:56;;;;;;;11.63;4.90;;;;;;;7.56;49.58;102835.47;5029741;28;20478;-76
2022/04/17 07:12:22;;;;;;;8.13;5.13;;;;;;;7.66;49.87;102834.81;5013713;28;20131;-76
2022/04/17 07:14:48;;;;;;;7.13;4.43;;;;;;;7.77;49.50;102824.53;5031703;28;20045;-75
2022/04/17 07:17:14;;;;;;;10.88;3.75;;;;;;;7.86;50.46;102830.91;5031520;28;20029;-76
2022/04/17 07:19:39;;;;;;;9.60;4.35;;;;;;;7.97;50.02;102820.56;5031245;28;20093;-77
2022/04/17 07:22:05;;;;;;;6.60;4.40;;;;;;;8.12;49.45;102819.97;5035490;28;20486;-76
2022/04/17 07:24:31;;;;;;;7.63;3.80;;;;;;;8.25;49.31;102821.09;5030925;28;20100;-77
2022/04/17 07:26:56;;;;;;;5.40;3.75;;;;;;;8.37;48.18;102816.06;5029659;28;20046;-77
2022/04/17 07:29:23;;;;;;;4.72;3.65;;;;;;;8.52;48.69;102818.13;5029532;28;20033;-77
2022/04/17 07:31:53;;;;;;;5.25;3.50;;;;;;;8.68;47.35;102808.72;5031033;28;20029;-77
2022/04/17 07:34:21;;;;;;;6.63;3.95;;;;;;;8.81;46.83;102808.09;5030789;28;20033;-77
2022/04/17 07:36:47;;;;;;;8.32;3.47;;;;;;;8.94;46.25;102801.25;5032303;28;20108;-77
2022/04/17 07:39:17;;;;;;;5.95;3.60;;;;;;;9.08;46.47;102810.28;5031135;28;20116;-77
2022/04/17 07:41:44;;;;;;;5.78;3.60;;;;;;;9.20;47.23;102807.84;5030858;28;20048;-77
2022/04/17 07:44:12;;;;;;;4.88;3.60;;;;;;;9.36;45.88;102808.06;5031293;28;21165;-77
2022/04/17 07:46:42;;;;;;;8.57;3.53;;;;;;;9.48;46.95;102802.94;5044123;28;20045;-77
2022/04/17 07:49:08;;;;;;;6.28;3.45;;;;;;;9.58;46.19;102794.28;5049916;28;20065;-77
2022/04/17 07:51:35;;;;;;;6.82;3.20;;;;;;;9.71;45.15;102790.03;5029774;28;20425;-77
2022/04/17 07:54:01;;;;;;;8.20;3.55;;;;;;;9.77;44.25;102800.69;5030877;28;20025;-77
2022/04/17 07:56:26;;;;;;;7.68;3.38;;;;;;;9.89;44.89;102792.00;5029668;28;20036;-77
2022/04/17 07:58:52;;;;;;;5.90;3.53;;;;;;;10.01;44.50;102785.97;5028597;28;20399;-77
2022/04/17 08:01:17;;;;;;;8.27;3.83;;;;;;;10.08;43.49;102775.47;5031002;28;20041;-77
2022/04/17 08:03:46;;;;;;;4.78;3.13;;;;;;;10.24;43.40;102796.84;5030533;28;20155;-77
2022/04/17 08:06:20;;;;;;;8.23;3.30;;;;;;;10.35;43.57;102781.97;5049011;28;20051;-77
2022/04/17 08:08:46;;;;;;;5.38;3.35;;;;;;;10.48;44.69;102781.25;5050095;28;20037;-77
2022/04/17 08:11:12;;;;;;;7.90;3.22;;;;;;;10.61;43.56;102790.19;5048997;28;20181;-77
2022/04/17 08:13:39;;;;;;;6.85;3.90;;;;;;;10.73;42.39;102784.09;5031714;28;20037;-77
2022/04/17 08:16:05;;;;;;;6.40;3.20;;;;;;;10.84;42.87;102776.25;5029561;28;20214;-77
2022/04/17 08:18:33;;;;;;;5.03;3.55;;;;;;;11.01;41.62;102773.72;5030746;28;20049;-77
2022/04/17 08:20:59;;;;;;;4.97;3.13;;;;;;;11.19;42.42;102784.44;5031459;28;20037;-77
2022/04/17 08:23:24;;;;;;;7.25;3.45;;;;;;;11.32;41.66;102782.75;5050760;28;20484;-77
2022/04/17 08:25:50;;;;;;;6.03;3.25;;;;;;;11.45;42.36;102781.06;5050636;28;20032;-78
2022/04/17 08:28:15;;;;;;;7.60;3.30;;;;;;;11.56;41.50;102776.72;5016179;28;20040;-79
2022/04/17 08:30:41;;;;;;;5.05;3.40;;;;;;;11.63;39.96;102779.38;5036704;28;20045;-78
2022/04/17 08:33:08;;;;;;;6.55;3.53;;;;;;;11.74;40.39;102778.53;5052740;28;20105;-77
2022/04/17 08:35:34;;;;;;;8.65;3.35;;;;;;;11.93;40.89;102777.78;5052765;28;20081;-78
2022/04/17 08:38:00;;;;;;;6.13;3.05;;;;;;;12.06;39.76;102778.69;5052661;28;20033;-78
2022/04/17 08:40:26;;;;;;;5.20;3.40;;;;;;;12.19;40.39;102772.56;5020146;28;20063;-77
2022/04/17 08:42:53;;;;;;;9.43;3.33;;;;;;;12.33;39.23;102771.69;5054741;28;20483;-77
2022/04/17 08:45:19;;;;;;;4.63;3.00;;;;;;;12.43;38.15;102765.50;5040701;28;20049;-78
2022/04/17 08:47:44;;;;;;;4.90;2.83;;;;;;;12.55;38.24;102761.97;5053146;28;20132;-78
2022/04/17 08:50:12;;;;;;;6.47;3.25;;;;;;;12.64;38.27;102762.84;5045555;28;20054;-77
2022/04/17 08:52:38;;;;;;;8.50;2.97;;;;;;;12.74;37.80;102766.41;5034262;28;20337;-77
2022/04/17 08:55:05;;;;;;;5.57;3.30;;;;;;;12.82;38.09;102756.66;5034352;28;20122;-77
2022/04/17 08:57:31;;;;;;;5.88;3.08;;;;;;;12.92;37.37;102754.88;5034236;28;20178;-77
2022/04/17 08:59:56;;;;;;;6.70;3.45;;;;;;;13.04;36.79;102752.19;5033023;28;20133;-77
2022/04/17 09:02:22;;;;;;;5.00;2.88;;;;;;;13.16;36.12;102747.75;5043295;28;20124;-77
2022/04/17 09:04:47;;;;;;;5.65;2.80;;;;;;;13.22;36.52;102756.59;5054273;28;20044;-77
2022/04/17 09:07:13;;;;;;;6.30;3.00;;;;;;;13.31;36.47;102739.75;5053972;28;20033;-77
2022/04/17 09:09:52;;;;;;;6.85;2.97;;;;;;;13.40;35.90;102741.50;5054080;28;20166;-77
2022/04/17 09:12:22;;;;;;;5.75;3.05;;;;;;;13.54;36.35;102748.53;5053921;28;20468;-77
2022/04/17 09:14:48;;;;;;;7.30;3.58;;;;;;;13.59;34.73;102747.63;5054201;28;20127;-77
2022/04/17 09:17:15;;;;;;;5.22;2.72;;;;;;;13.67;34.49;102741.38;5053754;28;20104;-77
2022/04/17 09:19:41;;;;;;;3.97;2.90;;;;;;;13.82;35.09;102742.19;5052750;28;20048;-77
2022/04/17 09:22:08;;;;;;;6.38;3.13;;;;;;;13.92;34.76;102742.16;5041946;28;20044;-77
2022/04/17 09:24:38;;;;;;;5.20;2.78;;;;;;;14.05;34.70;102739.44;5015785;28;20033;-77
2022/04/17 09:27:06;;;;;;;4.72;3.00;;;;;;;14.11;34.29;102740.25;5032244;28;20030;-77
2022/04/17 09:29:37;;;;;;;7.20;2.78;;;;;;;14.15;34.60;102728.69;5033891;28;20181;-77
2022/04/17 09:32:03;;;;;;;7.28;3.00;;;;;;;14.31;34.86;102725.91;5034321;28;20033;-77
2022/04/17 09:34:44;;;;;;;4.80;3.25;;;;;;;14.50;34.95;102721.34;5032463;28;20043;-77
2022/04/17 09:37:15;;;;;;;6.63;3.00;;;;;;;14.66;34.59;102723.00;5033589;28;20386;-77
2022/04/17 09:39:41;;;;;;;;;;;;;;;14.77;33.65;102714.91;5032546;28;20611;-78
2022/04/17 09:42:07;;;;;;;5.55;3.05;;;;;;;14.84;33.89;102720.19;5031994;28;20302;-78
2022/04/17 09:44:47;;;;;;;7.25;2.90;;;;;;;14.89;33.81;102714.78;5036354;28;20033;-78
2022/04/17 09:47:20;;;;;;;6.10;3.00;;;;;;;14.97;34.68;102715.59;5051122;28;20105;-77
2022/04/17 09:50:06;;;;;;;6.28;3.42;;;;;;;15.16;34.30;102707.41;5046246;28;20026;-77
2022/04/17 09:52:38;;;;;;;5.13;2.95;;;;;;;15.24;32.88;102706.41;5033546;28;20050;-78
2022/04/17 09:55:05;;;;;;;3.83;2.50;;;;;;;15.32;32.84;102694.75;5034015;28;20443;-78
2022/04/17 09:57:35;;;;;;;6.82;2.78;;;;;;;15.45;33.02;102686.59;5032162;28;20033;-78
2022/04/17 10:00:19;;;;;;;5.07;3.08;;;;;;;15.53;32.28;102691.81;5033530;28;20025;-78
2022/04/17 10:02:47;;;;;;;5.18;2.90;;;;;;;15.66;32.09;102679.19;5044364;28;20128;-78
2022/04/17 10:05:18;;;;;;;3.47;2.50;;;;;;;15.87;32.34;102672.66;5052791;28;20043;-78
2022/04/17 10:07:45;;;;;;;8.60;3.57;;;;;;;16.03;32.26;102676.00;5034340;28;20048;-77
2022/04/17 10:10:12;;;;;;;6.65;2.92;;;;;;;16.11;33.95;102669.63;5052980;28;20120;-77
2022/04/17 10:12:43;;;;;;;8.65;3.13;;;;;;;16.17;31.63;102662.41;5051841;28;20110;-77
2022/04/17 10:15:10;;;;;;;;;;;;;;;16.27;32.92;102656.00;5055222;28;20045;-81
2022/04/17 10:17:41;;;;;;;7.88;2.80;;;;;;;16.42;30.82;102658.44;5034909;28;20455;-82
2022/04/17 10:20:09;;;;;;;5.50;2.72;;;;;;;16.58;31.38;102650.16;5032648;28;20037;-81
2022/04/17 10:22:39;;;;;;;4.70;2.63;;;;;;;16.65;30.18;102641.09;5030269;28;20136;-81
2022/04/17 10:25:07;;;;;;;5.50;2.90;;;;;;;16.70;30.42;102634.75;5031052;28;20501;-78
2022/04/17 10:27:41;;;;;;;5.90;2.85;;;;;;;16.72;30.03;102632.06;5035465;28;20107;-77
2022/04/17 10:30:11;;;;;;;6.25;3.00;;;;;;;16.88;31.13;102638.88;5033666;28;20037;-77
2022/04/17 10:33:21;;;;;;;5.80;2.95;;;;;;;17.13;31.71;102619.66;5033730;28;20125;-81
2022/04/17 10:36:11;;;;;;;4.13;2.80;;;;;;;17.24;30.74;102616.78;5022632;28;20064;-78
2022/04/17 10:38:59;;;;;;;3.40;2.53;;;;;;;17.44;30.92;102606.50;5032254;28;20040;-78
2022/04/17 10:41:25;;;;;;;4.65;2.80;;;;;;;17.65;29.76;102610.47;5032021;28;20056;-78
2022/04/17 10:43:50;;;;;;;4.72;2.60;;;;;;;17.76;29.31;102612.91;5019066;28;20026;-78
2022/04/17 10:46:20;;;;;;;5.00;2.75;;;;;;;17.91;29.82;102598.28;5042682;28;20029;-78
2022/04/17 10:48:57;;;;;;;4.90;2.33;;;;;;;17.98;29.42;102598.09;5031922;28;20044;-78
2022/04/17 10:51:23;;;;;;;5.35;2.70;;;;;;;17.98;27.50;102600.78;5052377;28;20563;-78
2022/04/17 10:54:06;;;;;;;6.35;2.90;;;;;;;17.99;29.46;102597.16;5051357;28;20072;-78
2022/04/17 10:56:55;;;;;;;3.90;2.90;;;;;;;18.04;28.63;102591.69;5051463;28;20033;-78
2022/04/17 10:59:22;;;;;;;5.57;2.72;;;;;;;18.19;28.23;102591.28;5051044;28;20489;-78
2022/04/17 11:02:25;;;;;;;5.35;2.75;;;;;;;18.35;28.02;102589.09;5046329;28;20037;-78
2022/04/17 11:04:55;;;;;;;4.95;2.53;;;;;;;18.52;26.58;102588.66;5026552;28;20481;-78
2022/04/17 11:07:30;;;;;;;6.00;3.00;;;;;;;18.79;27.02;102578.09;5032325;28;20148;-78
2022/04/17 11:10:31;;;;;;;9.18;2.50;;;;;;;18.93;27.12;102567.84;5032023;28;20420;-78
2022/04/17 11:12:57;;;;;;;6.30;2.60;;;;;;;19.08;24.85;102561.13;5026563;28;20048;-78
2022/04/17 11:15:26;;;;;;;4.90;2.63;;;;;;;19.24;24.64;102569.63;5030223;28;20068;-78
2022/04/17 11:17:52;;;;;;;4.82;3.00;;;;;;;19.24;24.66;102559.75;5031496;28;20033;-78
2022/04/17 11:20:18;;;;;;;5.15;2.70;;;;;;;19.42;26.01;102562.78;5032379;28;20095;-78
2022/04/17 11:22:43;;;;;;;8.18;2.92;;;;;;;19.45;23.76;102554.63;5048130;28;20037;-78
2022/04/17 11:25:13;;;;;;;6.60;2.70;;;;;;;19.60;24.87;102546.06;5020876;28;20387;-78
2022/04/17 11:27:45;;;;;;;3.78;2.63;;;;;;;19.54;26.11;102543.59;5032704;28;20047;-78
2022/04/17 11:30:13;;;;;;;8.52;2.60;;;;;;;19.62;24.36;102543.34;5014062;28;20041;-79
2022/04/17 11:32:39;;;;;;;4.60;2.53;;;;;;;19.62;23.32;102535.28;5030626;28;20121;-78
2022/04/17 11:35:16;;;;;;;4.35;2.22;;;;;;;19.61;24.41;102529.03;5031354;28;20197;-77
2022/04/17 11:38:00;;;;;;;3.85;2.53;;;;;;;19.84;24.83;102530.97;5029348;28;20461;-77
2022/04/17 11:40:27;;;;;;;3.88;2.17;;;;;;;20.05;23.92;102537.41;5031217;28;20033;-77
2022/04/17 11:42:55;;;;;;;3.65;2.13;;;;;;;20.07;22.03;102522.09;5030955;28;20060;-77
2022/04/17 11:45:27;;;;;;;6.47;2.58;;;;;;;20.15;25.58;102520.03;5020700;28;20048;-77